Time;durP1;ratioP1;P1;durP2;ratioP2;P2;SDS_P1;SDS_P2;PMS_P1;PMS_P2;Temp;Humidity;BMP_temperature;BMP_pressure;BME280_temperature;BME280_humidity;BME280_pressure;Samples;Min_cycle;Max_cycle;Signal;HPM_P1;HPM_P2
2022/09/18 00:03:31;;;;;;;1.55;0.50;;;;;;;19.23;43.69;101687.25;16137011;19;130091;-65
2022/09/18 00:08:56;;;;;;;1.25;0.50;;;;;;;19.24;43.62;101686.19;16135395;19;129632;-64
2022/09/18 00:14:21;;;;;;;1.80;0.50;;;;;;;19.23;44.02;101687.25;16133992;19;129609;-65
2022/09/18 00:19:43;;;;;;;0.90;0.40;;;;;;;19.21;43.74;101676.41;16135813;19;129197;-66
2022/09/18 00:25:05;;;;;;;1.38;0.50;;;;;;;19.21;44.03;101675.53;16137252;19;129405;-65
2022/09/18 00:30:27;;;;;;;4.40;0.50;;;;;;;19.21;43.58;101689.41;16136576;19;129144;-65
2022/09/18 00:35:49;;;;;;;1.33;0.52;;;;;;;19.21;43.88;101689.41;16136485;19;130373;-65
2022/09/18 00:41:22;;;;;;;1.38;0.40;;;;;;;19.21;43.88;101681.09;16134888;19;129582;-65
2022/09/18 00:46:44;;;;;;;1.80;0.43;;;;;;;19.20;44.01;101701.56;16135119;19;129040;-65
2022/09/18 00:52:07;;;;;;;0.98;0.40;;;;;;;19.21;44.12;101689.41;16133168;19;129470;-65
2022/09/18 00:57:33;;;;;;;0.90;0.38;;;;;;;19.20;43.75;101694.09;16134133;19;129946;-65
2022/09/18 01:02:55;;;;;;;1.45;0.60;;;;;;;19.19;43.89;101692.41;16134404;19;129463;-65
2022/09/18 01:08:38;;;;;;;1.08;0.40;;;;;;;19.21;43.89;101683.84;16131428;19;129633;-65
2022/09/18 01:14:50;;;;;;;1.85;0.57;;;;;;;19.20;43.64;101674.69;16128089;19;129630;-64
2022/09/18 01:20:34;;;;;;;0.77;0.40;;;;;;;19.19;44.09;101688.78;16132346;19;129261;-64
2022/09/18 01:26:13;;;;;;;3.17;0.50;;;;;;;19.19;44.18;101672.16;16132702;19;129457;-65
2022/09/18 01:32:22;;;;;;;2.35;0.70;;;;;;;19.16;44.20;101670.66;16131321;19;129351;-65
2022/09/18 01:38:02;;;;;;;1.55;0.50;;;;;;;19.17;43.94;101665.97;16119786;19;129275;-64
2022/09/18 01:43:28;;;;;;;0.98;0.32;;;;;;;19.15;44.17;101666.19;16121688;19;129712;-64
2022/09/18 01:48:56;;;;;;;1.30;0.40;;;;;;;19.16;43.80;101667.06;16121277;19;129718;-65
2022/09/18 01:54:23;;;;;;;0.57;0.32;;;;;;;19.15;43.88;101659.81;16119376;19;129221;-65
2022/09/18 01:59:50;;;;;;;0.55;0.30;;;;;;;19.16;44.30;101655.97;16119069;19;130156;-65
2022/09/18 02:05:21;;;;;;;1.23;0.40;;;;;;;19.16;43.74;101647.63;16120100;19;129466;-64
2022/09/18 02:10:50;;;;;;;2.90;0.60;;;;;;;19.14;44.24;101636.75;16122230;19;129185;-65
2022/09/18 02:16:22;;;;;;;1.10;0.40;;;;;;;19.15;44.09;101632.06;16127774;19;128775;-65
2022/09/18 02:21:47;;;;;;;0.60;0.30;;;;;;;19.15;44.28;101629.28;16127163;19;129371;-65
2022/09/18 02:27:12;;;;;;;0.98;0.35;;;;;;;19.13;44.16;101635.09;16128107;19;129280;-65
2022/09/18 02:32:38;;;;;;;1.30;0.60;;;;;;;19.15;43.81;101638.44;16129633;19;134062;-65
2022/09/18 02:38:21;;;;;;;1.02;0.40;;;;;;;19.15;44.16;101644.00;16125106;19;129617;-65
2022/09/18 02:44:03;;;;;;;1.08;0.40;;;;;;;19.13;44.34;101640.63;16125298;19;129515;-65
2022/09/18 02:49:57;;;;;;;0.43;0.30;;;;;;;19.13;44.31;101624.00;16126789;19;129441;-65
2022/09/18 02:55:43;;;;;;;0.88;0.47;;;;;;;19.13;44.32;101623.13;16127619;19;129760;-64
2022/09/18 03:01:06;;;;;;;0.85;0.32;;;;;;;19.11;43.91;101626.16;16136688;19;129896;-65
2022/09/18 03:06:28;;;;;;;1.05;0.50;;;;;;;19.11;44.39;101617.81;16139725;19;129501;-65
2022/09/18 03:11:50;;;;;;;1.70;0.40;;;;;;;19.11;44.24;101619.75;16138127;19;129467;-65
2022/09/18 03:17:12;;;;;;;1.00;0.40;;;;;;;19.11;44.39;101619.75;16137711;19;129288;-65
2022/09/18 03:22:34;;;;;;;1.38;0.50;;;;;;;19.10;44.23;101618.91;16134402;19;130116;-65
2022/09/18 03:27:55;;;;;;;1.92;0.50;;;;;;;19.10;44.17;101615.25;16137021;19;129804;-66
2022/09/18 03:33:17;;;;;;;0.88;0.52;;;;;;;19.10;44.03;101609.72;16140106;19;129765;-66
2022/09/18 03:38:40;;;;;;;1.08;0.40;;;;;;;19.10;44.25;101606.94;16136249;19;129558;-66
2022/09/18 03:44:05;;;;;;;0.80;0.50;;;;;;;19.08;43.96;101601.66;16133557;19;129591;-68
2022/09/18 03:49:26;;;;;;;1.88;0.40;;;;;;;19.08;44.29;101594.16;16135721;19;129064;-70
2022/09/18 03:54:48;;;;;;;0.63;0.38;;;;;;;19.08;44.43;101590.56;16138030;19;129044;-71
2022/09/18 04:00:11;;;;;;;0.65;0.38;;;;;;;19.07;44.36;101589.72;16134075;19;129304;-66
2022/09/18 04:05:33;;;;;;;0.47;0.32;;;;;;;19.07;43.99;101592.50;16130747;19;129604;-67
2022/09/18 04:10:55;;;;;;;0.75;0.28;;;;;;;19.07;43.98;101589.72;16133901;19;129467;-65
2022/09/18 04:16:17;;;;;;;1.20;0.40;;;;;;;19.07;44.29;101586.09;16135643;19;129361;-64
2022/09/18 04:21:39;;;;;;;1.48;0.38;;;;;;;19.07;43.94;101586.09;16131307;19;129107;-66
2022/09/18 04:27:01;;;;;;;0.50;0.28;;;;;;;19.06;44.16;101576.94;16133188;19;129498;-65
2022/09/18 04:32:23;;;;;;;1.50;0.40;;;;;;;19.06;43.95;101595.47;16130139;19;129304;-69
2022/09/18 04:37:45;;;;;;;1.10;0.45;;;;;;;19.05;44.46;101625.16;16131551;19;129445;-65
2022/09/18 04:43:09;;;;;;;1.08;0.43;;;;;;;19.04;44.10;101615.13;16129648;19;130792;-65
2022/09/18 04:48:30;;;;;;;1.05;0.40;;;;;;;19.04;44.02;101623.47;16131658;19;130206;-65
2022/09/18 04:53:52;;;;;;;0.77;0.40;;;;;;;19.03;44.03;101609.81;16129681;19;129649;-65
2022/09/18 04:59:14;;;;;;;2.28;0.50;;;;;;;19.02;44.24;101606.19;16131588;19;129794;-65
2022/09/18 05:04:35;;;;;;;1.60;0.55;;;;;;;19.02;44.28;101617.28;16128558;19;129563;-65
2022/09/18 05:09:57;;;;;;;0.70;0.30;;;;;;;19.02;44.43;101606.19;16129756;19;130206;-65
2022/09/18 05:15:20;;;;;;;1.27;0.40;;;;;;;19.02;44.37;101589.56;16129525;19;129215;-65
2022/09/18 05:20:42;;;;;;;1.30;0.43;;;;;;;19.02;44.43;101594.25;16127239;19;129351;-65
2022/09/18 05:26:04;;;;;;;1.65;0.50;;;;;;;19.00;44.29;101586.16;16131544;19;129197;-66
2022/09/18 05:31:25;;;;;;;1.48;0.43;;;;;;;19.01;44.18;101595.34;16131478;19;129630;-65
2022/09/18 05:36:47;;;;;;;0.70;0.40;;;;;;;19.01;44.03;101603.66;16130956;19;129917;-64
2022/09/18 05:42:09;;;;;;;0.90;0.45;;;;;;;19.02;44.09;101605.34;16129291;19;132662;-65
2022/09/18 05:47:34;;;;;;;0.60;0.30;;;;;;;19.01;44.05;101604.50;16128477;19;128858;-65
2022/09/18 05:53:00;;;;;;;0.45;0.35;;;;;;;19.02;44.33;101599.78;16128415;19;129389;-65
2022/09/18 05:58:21;;;;;;;1.15;0.52;;;;;;;19.02;44.16;101608.09;16125815;19;129227;-65
2022/09/18 06:03:43;;;;;;;1.23;0.43;;;;;;;19.02;44.01;101606.19;16127692;19;130124;-65
2022/09/18 06:09:05;;;;;;;2.83;0.70;;;;;;;19.02;44.10;101592.34;16127185;19;129591;-65
2022/09/18 06:14:27;;;;;;;1.02;0.50;;;;;;;19.00;44.20;101597.25;16125245;19;129592;-65
2022/09/18 06:19:49;;;;;;;0.70;0.45;;;;;;;19.01;44.07;101598.97;16128119;19;132748;-65
2022/09/18 06:25:11;;;;;;;1.00;0.52;;;;;;;19.00;44.11;101597.25;16128862;19;129568;-65
2022/09/18 06:30:34;;;;;;;1.02;0.43;;;;;;;19.02;44.30;101585.91;16140074;19;129555;-65
2022/09/18 06:35:57;;;;;;;1.02;0.40;;;;;;;19.02;44.37;101594.25;16142182;19;129271;-65
2022/09/18 06:41:18;;;;;;;0.90;0.40;;;;;;;19.01;44.36;101581.50;16143582;19;129433;-65
2022/09/18 06:46:40;;;;;;;0.80;0.30;;;;;;;19.01;44.27;101587.88;16142281;19;129240;-65
2022/09/18 06:52:02;;;;;;;0.80;0.30;;;;;;;19.01;44.25;101593.41;16142018;19;129516;-66
2022/09/18 06:57:23;;;;;;;1.98;0.52;;;;;;;19.02;44.43;101583.16;16139983;19;131596;-65
2022/09/18 07:02:45;;;;;;;0.50;0.25;;;;;;;19.01;44.52;101585.09;16140284;19;129266;-66
2022/09/18 07:08:08;;;;;;;1.40;0.40;;;;;;;19.02;44.09;101591.47;16140332;19;128953;-65
2022/09/18 07:13:31;;;;;;;0.82;0.30;;;;;;;19.01;44.27;101593.41;16141497;19;129042;-65
2022/09/18 07:18:52;;;;;;;0.75;0.40;;;;;;;18.99;44.46;101587.25;16155432;19;129466;-65
2022/09/18 07:24:14;;;;;;;1.45;0.45;;;;;;;19.00;44.33;101593.66;16160071;19;129637;-65
2022/09/18 07:29:36;;;;;;;1.13;0.40;;;;;;;18.99;44.48;101597.50;16161883;19;128963;-66
2022/09/18 07:34:57;;;;;;;0.50;0.50;;;;;;;18.99;44.30;101598.34;16163557;19;129103;-65
2022/09/18 07:40:19;;;;;;;2.45;0.32;;;;;;;18.98;44.45;101602.19;16157507;19;129476;-66
2022/09/18 07:45:42;;;;;;;1.30;0.32;;;;;;;18.99;44.49;101598.34;16160417;19;128921;-66
2022/09/18 07:51:05;;;;;;;1.20;0.50;;;;;;;18.98;44.16;101604.97;16142759;19;129658;-65
2022/09/18 07:56:26;;;;;;;1.15;0.38;;;;;;;18.98;44.49;101595.81;16138122;19;129360;-65
2022/09/18 08:01:50;;;;;;;0.52;0.30;;;;;;;18.99;44.05;101605.81;16135409;19;130087;-65
2022/09/18 08:07:12;;;;;;;1.05;0.30;;;;;;;19.00;44.33;101601.97;16136039;19;129651;-65
2022/09/18 08:12:33;;;;;;;0.80;0.40;;;;;;;19.00;44.33;101601.97;16138404;19;130557;-66
2022/09/18 08:17:55;;;;;;;1.20;0.40;;;;;;;18.98;44.08;101598.59;16133213;19;129903;-66
2022/09/18 08:23:17;;;;;;;0.73;0.30;;;;;;;18.97;44.10;101603.25;16131273;19;129460;-66
2022/09/18 08:28:38;;;;;;;0.90;0.40;;;;;;;18.97;44.06;101608.81;16134191;19;129696;-66
2022/09/18 08:34:00;;;;;;;1.13;0.50;;;;;;;18.98;44.09;101613.28;16135603;19;129064;-65
2022/09/18 08:39:22;;;;;;;0.55;0.40;;;;;;;18.96;44.51;101618.19;16132657;19;129840;-65
2022/09/18 08:44:59;;;;;;;0.80;0.30;;;;;;;18.98;44.05;101638.22;16133909;19;130056;-65
2022/09/18 08:50:23;;;;;;;0.60;0.40;;;;;;;18.97;44.05;101649.56;16134729;19;130574;-65
2022/09/18 08:55:48;;;;;;;1.33;0.40;;;;;;;18.95;44.46;101637.84;16134836;19;129869;-65
2022/09/18 09:01:15;;;;;;;0.63;0.43;;;;;;;18.96;44.49;101629.28;16136401;19;130247;-66
2022/09/18 09:06:49;;;;;;;1.13;0.40;;;;;;;18.96;44.19;101629.28;16131178;19;130474;-65
2022/09/18 09:12:41;;;;;;;1.05;0.50;;;;;;;18.96;44.33;101617.38;16133187;19;129739;-65
2022/09/18 09:18:21;;;;;;;0.85;0.30;;;;;;;18.93;44.15;101607.59;16185048;19;129269;-66
2022/09/18 09:23:49;;;;;;;0.77;0.43;;;;;;;18.93;44.32;101602.06;16211966;19;128215;-66
2022/09/18 09:29:17;;;;;;;0.57;0.30;;;;;;;18.94;44.23;101587.13;16212784;19;130288;-65
2022/09/18 09:34:53;;;;;;;1.08;0.35;;;;;;;18.99;44.05;101597.50;16213054;19;128772;-65
2022/09/18 09:40:21;;;;;;;1.00;0.40;;;;;;;18.98;44.20;101587.50;16207579;19;129048;-65
2022/09/18 09:45:47;;;;;;;0.40;0.25;;;;;;;18.98;44.53;101577.22;16208680;19;128522;-66
2022/09/18 09:51:49;;;;;;;0.73;0.40;;;;;;;18.99;44.21;101578.94;16210184;19;129638;-66
2022/09/18 09:57:22;;;;;;;1.95;0.40;;;;;;;18.99;44.39;101567.84;16202121;19;128174;-66
2022/09/18 10:02:56;;;;;;;0.93;0.22;;;;;;;18.99;44.08;101570.59;16196727;19;129519;-66
2022/09/18 10:08:26;;;;;;;0.75;0.38;;;;;;;18.99;44.23;101576.16;16207994;19;128817;-66
2022/09/18 10:14:06;;;;;;;0.80;0.40;;;;;;;18.99;44.35;101572.56;16210250;19;129377;-65
2022/09/18 10:19:36;;;;;;;0.77;0.60;;;;;;;18.99;44.48;101573.38;16208277;19;128221;-65
2022/09/18 10:25:06;;;;;;;0.75;0.40;;;;;;;19.00;44.23;101566.75;16208190;19;129419;-65
2022/09/18 10:30:28;;;;;;;1.33;0.50;;;;;;;18.99;44.23;101565.06;16206329;19;129186;-66
2022/09/18 10:35:53;;;;;;;0.32;0.30;;;;;;;19.00;44.15;101563.97;16206175;19;129554;-58
2022/09/18 10:41:34;;;;;;;0.57;0.28;;;;;;;18.99;44.14;101562.28;16205299;19;129777;-66
2022/09/18 10:47:05;;;;;;;0.70;0.43;;;;;;;19.00;44.25;101563.97;16205630;19;129246;-66
2022/09/18 10:52:32;;;;;;;0.70;0.40;;;;;;;19.01;44.12;101554.59;16205269;19;128849;-66
2022/09/18 10:57:57;;;;;;;1.17;0.45;;;;;;;18.99;44.49;101551.19;16206973;19;128985;-66
2022/09/18 11:03:21;;;;;;;0.95;0.50;;;;;;;18.99;44.59;101550.38;16204208;19;128513;-65
2022/09/18 11:08:49;;;;;;;0.50;0.40;;;;;;;18.98;44.10;101540.34;16204743;19;130462;-65
2022/09/18 11:14:22;;;;;;;0.43;0.40;;;;;;;18.98;44.11;101538.41;16203768;19;128001;-65
2022/09/18 11:19:51;;;;;;;0.70;0.43;;;;;;;18.98;44.16;101549.50;16202766;19;128990;-65
2022/09/18 11:25:13;;;;;;;1.15;0.50;;;;;;;18.95;44.54;101554.66;16157510;19;129081;-65
2022/09/18 11:30:37;;;;;;;1.50;0.50;;;;;;;18.96;44.25;101557.19;16144943;19;129072;-65
2022/09/18 11:36:04;;;;;;;0.90;0.35;;;;;;;18.95;44.23;101544.44;16143869;19;129832;-64
2022/09/18 11:41:33;;;;;;;1.02;0.50;;;;;;;18.95;44.12;101547.22;16144202;19;129172;-66
2022/09/18 11:47:13;;;;;;;0.45;0.40;;;;;;;18.95;44.03;101555.53;16141312;19;129600;-71
2022/09/18 11:52:50;;;;;;;0.60;0.40;;;;;;;18.95;44.45;101557.44;16206908;19;129239;-68
2022/09/18 11:58:12;;;;;;;1.10;0.70;;;;;;;;;;16199720;19;128604;-68
2022/09/18 12:03:36;;;;;;;0.88;0.50;;;;;;;;;;16184136;19;132707;-70
2022/09/18 12:09:15;;;;;;;0.82;0.43;;;;;;;18.91;44.45;101562.63;16140642;19;129902;-71
2022/09/18 12:14:43;;;;;;;1.20;0.60;;;;;;;18.90;44.43;101547.91;16145016;19;129456;-67
2022/09/18 12:20:29;;;;;;;0.55;0.40;;;;;;;18.93;44.20;101538.28;16142393;19;129440;-69
2022/09/18 12:25:54;;;;;;;;;;;;;;;18.87;44.18;101540.06;16157856;19;129306;-66
2022/09/18 12:31:33;;;;;;;0.70;0.50;;;;;;;18.92;44.45;101534.66;16169648;19;129058;-65
2022/09/18 12:37:28;;;;;;;0.95;0.50;;;;;;;18.90;44.59;101547.91;16141122;19;129932;-66
2022/09/18 12:43:07;;;;;;;0.70;0.50;;;;;;;18.90;44.26;101535.97;16143008;19;129306;-65
2022/09/18 12:48:45;;;;;;;0.80;0.40;;;;;;;18.90;44.15;101538.75;16139608;19;130365;-65
2022/09/18 12:54:12;;;;;;;0.75;0.45;;;;;;;18.89;44.34;101534.28;16131661;19;129211;-66
2022/09/18 12:59:40;;;;;;;0.65;0.40;;;;;;;;;;16132549;19;130131;-66
2022/09/18 13:05:06;;;;;;;0.77;0.52;;;;;;;18.91;44.14;101532.13;16130778;19;129528;-66
2022/09/18 13:10:28;;;;;;;1.05;0.40;;;;;;;;;;16133145;19;129228;-66
2022/09/18 13:16:12;;;;;;;0.98;0.55;;;;;;;18.94;44.22;101526.13;16133648;19;129180;-65
2022/09/18 13:21:40;;;;;;;1.30;0.50;;;;;;;18.92;44.11;101519.94;16134815;19;133045;-64
2022/09/18 13:27:08;;;;;;;1.10;0.60;;;;;;;18.92;44.15;101522.72;16130648;19;129502;-65
2022/09/18 13:32:30;;;;;;;0.98;0.50;;;;;;;18.90;44.24;101530.44;16131891;19;130448;-65
2022/09/18 13:38:17;;;;;;;1.13;0.40;;;;;;;18.91;44.15;101559.84;16126487;19;129292;-66
2022/09/18 13:43:44;;;;;;;1.13;0.57;;;;;;;18.88;44.49;101552.84;16128001;19;129546;-66
2022/09/18 13:49:25;;;;;;;0.40;0.30;;;;;;;18.88;44.03;101543.66;16125858;19;129100;-66
2022/09/18 13:55:12;;;;;;;0.80;0.50;;;;;;;18.87;44.31;101542.84;16129139;19;129831;-65
2022/09/18 14:00:34;;;;;;;1.88;0.70;;;;;;;18.84;44.06;101520.25;16124989;19;129747;-64
2022/09/18 14:05:56;;;;;;;1.90;0.60;;;;;;;18.84;44.50;101536.88;16125213;19;130604;-63
2022/09/18 14:11:23;;;;;;;1.48;0.45;;;;;;;18.84;44.07;101539.66;16126329;19;130897;-64
2022/09/18 14:16:46;;;;;;;1.83;0.68;;;;;;;18.84;44.44;101534.13;16124837;19;129295;-64
2022/09/18 14:22:33;;;;;;;2.05;0.70;;;;;;;18.84;44.07;101536.88;16125334;19;129329;-64
2022/09/18 14:27:57;;;;;;;0.70;0.40;;;;;;;18.80;44.37;101528.19;16115846;19;130036;-62
2022/09/18 14:33:19;;;;;;;1.48;0.55;;;;;;;18.79;44.12;101517.34;16123478;19;129700;-61
2022/09/18 14:38:41;;;;;;;5.30;0.60;;;;;;;18.77;44.52;101518.44;16121158;19;129446;-61
2022/09/18 14:44:05;;;;;;;4.32;0.60;;;;;;;18.77;44.47;101515.66;16122633;19;130398;-64
2022/09/18 14:49:34;;;;;;;5.78;0.70;;;;;;;18.80;44.59;101519.03;16134738;19;129008;-65
2022/09/18 14:55:08;;;;;;;12.20;0.82;;;;;;;18.80;44.82;101530.13;16139970;19;129766;-64
2022/09/18 15:00:32;;;;;;;11.88;1.08;;;;;;;18.90;44.79;101524.88;16137405;19;129811;-64
2022/09/18 15:06:03;;;;;;;9.15;1.08;;;;;;;19.13;44.61;101503.88;16135491;19;130068;-66
2022/09/18 15:11:28;;;;;;;6.18;0.85;;;;;;;19.49;43.90;101496.53;16141972;19;130041;-67
2022/09/18 15:17:27;;;;;;;3.72;0.65;;;;;;;19.91;43.40;101502.00;16139132;19;129718;-61
2022/09/18 15:22:50;;;;;;;10.25;0.80;;;;;;;20.15;43.12;101510.38;16135934;19;129750;-65
2022/09/18 15:28:11;;;;;;;6.60;0.90;;;;;;;20.38;42.90;101533.66;16134225;19;129813;-58
2022/09/18 15:33:36;;;;;;;11.27;1.30;;;;;;;20.53;42.84;101524.81;16140552;19;129553;-59
2022/09/18 15:38:59;;;;;;;11.83;1.47;;;;;;;20.62;42.55;101525.28;16135156;19;129797;-60
2022/09/18 15:44:33;;;;;;;9.13;0.93;;;;;;;20.61;42.25;101507.75;16134163;19;129633;-59
2022/09/18 15:49:55;;;;;;;13.00;1.30;;;;;;;20.49;42.45;101521.69;16138643;19;129395;-54
2022/09/18 15:55:21;;;;;;;3.70;0.70;;;;;;;20.41;42.54;101513.72;16135142;19;129513;-55
2022/09/18 16:00:54;;;;;;;3.55;1.10;;;;;;;20.32;42.80;101529.06;16133671;19;129975;-57
2022/09/18 16:06:25;;;;;;;4.55;1.23;;;;;;;20.20;42.54;101510.47;16134405;19;130660;-57
2022/09/18 16:11:47;;;;;;;8.90;1.35;;;;;;;20.12;42.91;101519.19;16137298;19;128969;-53
2022/09/18 16:17:27;;;;;;;6.38;1.30;;;;;;;20.03;42.91;101512.31;16132948;19;131434;-57
2022/09/18 16:22:50;;;;;;;3.63;0.80;;;;;;;19.91;43.39;101518.66;16135316;19;133715;-57
2022/09/18 16:28:24;;;;;;;4.63;1.15;;;;;;;19.83;42.94;101525.44;16133924;19;129804;-57
2022/09/18 16:34:03;;;;;;;2.97;0.77;;;;;;;19.76;43.27;101516.34;16135648;19;129882;-58
2022/09/18 16:39:25;;;;;;;3.25;1.30;;;;;;;19.63;43.23;101511.88;16132798;19;129773;-64
2022/09/18 16:44:47;;;;;;;8.80;3.47;;;;;;;19.55;43.47;101509.47;16132201;19;130709;-62
2022/09/18 16:50:10;;;;;;;16.27;4.68;;;;;;;19.53;43.70;101503.28;16128139;19;134227;-63
2022/09/18 16:55:33;;;;;;;13.82;3.38;;;;;;;19.57;43.77;101512.81;16128874;19;130800;-66
2022/09/18 17:00:55;;;;;;;11.07;3.03;;;;;;;19.66;44.11;101516.97;16131255;19;129984;-63
2022/09/18 17:06:18;;;;;;;10.32;4.00;;;;;;;19.83;43.80;101513.47;16129201;19;130163;-62
2022/09/18 17:11:39;;;;;;;5.95;3.15;;;;;;;20.09;43.71;101506.63;16129534;19;129986;-62
2022/09/18 17:17:03;;;;;;;6.15;3.17;;;;;;;20.43;43.06;101508.78;16127607;19;129197;-61
2022/09/18 17:22:24;;;;;;;6.30;3.35;;;;;;;20.71;42.83;101507.09;16132217;19;129476;-62
2022/09/18 17:27:49;;;;;;;7.38;4.57;;;;;;;20.84;42.68;101509.63;16127569;19;129518;-55
2022/09/18 17:33:11;;;;;;;30.23;8.33;;;;;;;20.87;43.13;101519.41;16125955;19;130013;-61
2022/09/18 17:38:36;;;;;;;15.82;9.18;;;;;;;20.84;43.10;101540.22;16125490;19;129850;-60
2022/09/18 17:43:58;;;;;;;19.98;9.13;;;;;;;20.76;43.00;101576.78;16125023;19;131710;-68
2022/09/18 17:49:20;;;;;;;23.50;10.15;;;;;;;20.69;43.31;101571.31;16125452;19;129359;-61
2022/09/18 17:54:42;;;;;;;24.00;9.68;;;;;;;20.62;43.61;101580.88;16124855;19;130086;-61
2022/09/18 18:00:05;;;;;;;13.40;9.50;;;;;;;20.53;43.67;101586.81;16124196;19;130063;-64
2022/09/18 18:05:27;;;;;;;13.27;7.68;;;;;;;20.47;44.10;101579.44;16124928;19;130418;-66
2022/09/18 18:10:48;;;;;;;25.10;7.50;;;;;;;20.41;44.17;101594.31;16121343;19;133792;-55
2022/09/18 18:16:15;;;;;;;21.58;6.88;;;;;;;20.40;43.96;101593.47;16125552;19;129878;-58
2022/09/18 18:21:40;;;;;;;10.70;5.20;;;;;;;20.50;43.91;101598.41;16124076;19;129643;-58
2022/09/18 18:27:03;;;;;;;16.38;4.95;;;;;;;20.69;43.66;101596.34;16130907;19;129687;-60
2022/09/18 18:32:25;;;;;;;31.92;5.60;;;;;;;20.92;43.67;101614.09;16135491;19;129526;-56
2022/09/18 18:37:46;;;;;;;25.13;6.55;;;;;;;21.16;43.93;101634.38;16137289;19;129851;-59
2022/09/18 18:43:13;;;;;;;23.60;5.45;;;;;;;21.40;43.69;101639.84;16136290;19;130183;-54
2022/09/18 18:48:35;;;;;;;14.65;4.75;;;;;;;21.60;43.41;101652.50;16134947;19;129987;-59
2022/09/18 18:54:01;;;;;;;28.73;4.72;;;;;;;21.74;43.25;101662.25;16136300;19;129445;-59
2022/09/18 18:59:24;;;;;;;22.67;4.80;;;;;;;21.87;43.13;101676.94;16138297;19;129231;-59
2022/09/18 19:04:46;;;;;;;12.90;3.70;;;;;;;21.98;43.05;101690.81;16130439;19;130291;-58
2022/09/18 19:10:08;;;;;;;17.30;4.22;;;;;;;22.07;43.03;101696.81;16133618;19;129201;-59
2022/09/18 19:15:30;;;;;;;14.20;3.45;;;;;;;22.18;43.01;101700.63;16137615;19;129674;-59
2022/09/18 19:20:56;;;;;;;8.68;3.42;;;;;;;22.26;42.70;101691.06;16132840;19;130881;-58
2022/09/18 19:26:20;;;;;;;7.07;3.33;;;;;;;22.31;42.81;101698.66;16133124;19;130119;-59
2022/09/18 19:31:43;;;;;;;14.85;4.32;;;;;;;22.37;42.46;101687.34;16136133;19;129709;-58
2022/09/18 19:37:05;;;;;;;9.32;3.40;;;;;;;22.44;42.67;101704.72;16129780;19;130206;-59
2022/09/18 19:42:33;;;;;;;9.63;3.92;;;;;;;22.50;42.33;101691.72;16134381;19;129305;-58
2022/09/18 19:47:56;;;;;;;8.98;3.20;;;;;;;22.55;42.04;101694.59;16134457;19;129670;-59
2022/09/18 19:53:18;;;;;;;13.88;2.95;;;;;;;22.61;42.31;101705.81;16132509;19;129462;-59
2022/09/18 19:58:41;;;;;;;11.00;2.97;;;;;;;22.58;42.22;101704.38;16133036;19;131304;-57
2022/09/18 20:04:03;;;;;;;8.18;2.70;;;;;;;22.48;42.32;101704.22;16131548;19;129164;-59
2022/09/18 20:09:27;;;;;;;13.18;3.20;;;;;;;22.34;42.53;101707.34;16125514;19;129182;-62
2022/09/18 20:14:49;;;;;;;9.17;2.40;;;;;;;22.18;42.95;101713.72;16132840;19;129652;-62
2022/09/18 20:20:11;;;;;;;11.93;2.70;;;;;;;22.01;42.88;101711.78;16132874;19;129608;-61
2022/09/18 20:25:37;;;;;;;6.90;1.92;;;;;;;21.83;43.27;101722.00;16131683;19;129487;-61
2022/09/18 20:31:07;;;;;;;5.50;1.85;;;;;;;21.70;43.35;101713.94;16132525;19;129180;-62
2022/09/18 20:36:30;;;;;;;7.43;2.05;;;;;;;21.52;43.30;101715.84;16129140;19;129445;-62
2022/09/18 20:41:52;;;;;;;3.83;1.58;;;;;;;21.45;43.92;101719.84;16128387;19;129332;-62
2022/09/18 20:47:16;;;;;;;4.93;1.40;;;;;;;21.36;43.51;101719.38;16129974;19;134186;-67
2022/09/18 20:52:41;;;;;;;5.40;1.25;;;;;;;21.27;43.88;101723.63;16132518;19;129904;-68
2022/09/18 20:58:04;;;;;;;;;;;;;;;21.13;44.24;101723.88;16131268;19;129452;-63
2022/09/18 21:03:26;;;;;;;3.47;1.30;;;;;;;21.07;43.90;101730.41;16131705;19;128998;-62
2022/09/18 21:08:51;;;;;;;4.10;1.00;;;;;;;21.00;44.20;101740.84;16129869;19;129529;-62
2022/09/18 21:14:18;;;;;;;3.67;1.20;;;;;;;20.89;44.19;101743.38;16130292;19;134651;-63
2022/09/18 21:19:40;;;;;;;4.50;1.17;;;;;;;20.81;44.24;101757.63;16126455;19;129726;-63
2022/09/18 21:25:02;;;;;;;4.30;0.95;;;;;;;20.74;44.69;101748.53;16125587;19;129582;-62
2022/09/18 21:30:25;;;;;;;5.60;0.82;;;;;;;20.69;44.65;101756.75;16127835;19;129694;-62
2022/09/18 21:35:51;;;;;;;1.23;0.60;;;;;;;20.63;44.71;101752.16;16129549;19;129691;-63
2022/09/18 21:41:14;;;;;;;5.65;0.85;;;;;;;20.56;44.49;101775.34;16126964;19;129542;-62
2022/09/18 21:46:37;;;;;;;2.70;0.80;;;;;;;20.52;44.59;101768.59;16126953;19;129379;-62
2022/09/18 21:52:05;;;;;;;1.17;0.50;;;;;;;20.49;44.76;101768.22;16124883;19;129858;-62
2022/09/18 21:57:26;;;;;;;2.15;0.85;;;;;;;20.43;44.57;101775.56;16124510;19;130430;-62
2022/09/18 22:02:52;;;;;;;1.02;0.50;;;;;;;20.40;45.17;101776.03;16124038;19;129598;-63
2022/09/18 22:08:15;;;;;;;2.22;0.73;;;;;;;20.38;44.74;101783.78;16126553;19;133003;-62
2022/09/18 22:13:37;;;;;;;3.00;0.68;;;;;;;20.36;45.13;101781.25;16126863;19;129656;-62
2022/09/18 22:18:59;;;;;;;1.38;0.40;;;;;;;20.34;45.07;101785.31;16125215;19;129502;-62
2022/09/18 22:24:24;;;;;;;0.82;0.40;;;;;;;20.31;45.09;101792.22;16121320;19;129726;-62
2022/09/18 22:29:45;;;;;;;0.77;0.43;;;;;;;20.26;44.92;101795.69;16123606;19;129373;-62
2022/09/18 22:35:08;;;;;;;1.85;0.55;;;;;;;20.23;44.94;101785.06;16122141;19;129171;-62
2022/09/18 22:40:31;;;;;;;2.80;0.70;;;;;;;20.21;44.83;101790.00;16122118;19;129690;-62
2022/09/18 22:45:59;;;;;;;1.48;0.30;;;;;;;20.18;45.01;101790.47;16126181;19;129643;-62
2022/09/18 22:51:25;;;;;;;0.60;0.30;;;;;;;20.16;44.76;101803.75;16121339;19;130245;-62
2022/09/18 22:56:48;;;;;;;0.20;0.20;;;;;;;20.13;44.78;101807.00;16120351;19;130347;-63
2022/09/18 23:02:10;;;;;;;0.90;0.40;;;;;;;20.10;45.18;101813.00;16120169;19;129531;-62
2022/09/18 23:07:32;;;;;;;0.50;0.20;;;;;;;20.07;45.29;101817.13;16119108;19;130130;-62
2022/09/18 23:12:54;;;;;;;1.08;0.20;;;;;;;20.04;44.89;101816.75;16132529;19;129676;-62
2022/09/18 23:18:17;;;;;;;0.30;0.20;;;;;;;20.02;44.92;101819.75;16136062;19;130597;-63
2022/09/18 23:23:42;;;;;;;0.35;0.10;;;;;;;20.01;44.90;101820.00;16138073;19;130462;-62
2022/09/18 23:29:07;;;;;;;1.23;0.40;;;;;;;19.98;45.06;101824.06;16135106;19;129328;-62
2022/09/18 23:34:30;;;;;;;0.70;0.25;;;;;;;19.94;44.96;101817.25;16135736;19;134867;-62
2022/09/18 23:39:52;;;;;;;1.60;0.40;;;;;;;19.93;45.14;101818.34;16134918;19;129579;-62
2022/09/18 23:45:14;;;;;;;0.63;0.20;;;;;;;19.90;45.47;101822.44;16139418;19;132086;-63
2022/09/18 23:50:35;;;;;;;0.85;0.30;;;;;;;19.87;44.96;101822.91;16134020;19;129406;-62
2022/09/18 23:56:12;;;;;;;0.75;0.32;;;;;;;19.88;45.47;101824.59;16134158;19;129373;-63
